This is the latest recevied weather packets stored in our database for station/object K9ABJ. If no packets are shown the sender has not sent any weather packets the latest 10 day(s).
| Time | Temp. | Humidity | Pressure | Rain* | Wind** | Luminosity | Snow |
|---|---|---|---|---|---|---|---|
| 1787862676 | 31.67° C | 51% | 1015.4 hPa | 0 mm | - | 316 W/m² | - |
| 1787862371 | 30° C | 55% | 1015.2 hPa | 0 mm | - | 125 W/m² | - |
| 1787862067 | 31.11° C | 52% | 1015.3 hPa | 0 mm | - | 259 W/m² | - |
| 1787861766 | 33.33° C | 48% | 1015.2 hPa | 0 mm | - | 237 W/m² | - |
| 1787861464 | 30.56° C | 52% | 1015.3 hPa | 0 mm | - | 849 W/m² | - |
| 1787861159 | 31.11° C | 54% | 1015.4 hPa | 0 mm | - | 527 W/m² | - |
| 1787860858 | 30° C | 55% | 1015.2 hPa | 0 mm | - | 871 W/m² | - |
| 1787860552 | 27.22° C | 60% | 1015.2 hPa | 0 mm | - | 880 W/m² | - |
| 1787860248 | 27.78° C | 58% | 1015.5 hPa | 0 mm | - | 820 W/m² | - |
| 1787859943 | 29.44° C | 56% | 1015.5 hPa | 0 mm | - | 172 W/m² | - |
| 1787859639 | 29.44° C | 54% | 1015.5 hPa | 0 mm | - | 503 W/m² | - |
| 1787859338 | 29.44° C | 56% | 1015.4 hPa | 0 mm | - | 613 W/m² | - |
| 1787859035 | 29.44° C | 55% | 1015.5 hPa | 0 mm | - | 187 W/m² | - |
| 1787858730 | 31.67° C | 51% | 1015.5 hPa | 0 mm | - | 987 W/m² | - |
| 1787858425 | 30.56° C | 52% | 1015.4 hPa | 0 mm | - | 1039 W/m² | - |
| 1787858125 | 31.11° C | 50% | 1015.5 hPa | 0 mm | - | 1278 W/m² | - |
| 1787857821 | 31.11° C | 50% | 1015.5 hPa | 0 mm | - | 175 W/m² | - |
| 1787857516 | 31.11° C | 55% | 1015.4 hPa | 0 mm | - | 482 W/m² | - |
| 1787857215 | 30° C | 54% | 1015.5 hPa | 0 mm | - | 208 W/m² | - |
| 1787856909 | 30° C | 57% | 1015.6 hPa | 0 mm | - | 713 W/m² | - |
| 1787856610 | 30° C | 54% | 1015.6 hPa | 0 mm | - | 734 W/m² | - |
| 1787856310 | 30° C | 55% | 1015.5 hPa | 0 mm | - | 666 W/m² | - |
| 1787856006 | 28.89° C | 59% | 1015.5 hPa | 0 mm | - | 608 W/m² | - |
| 1787855705 | 30° C | 57% | 1015.8 hPa | 0 mm | - | 639 W/m² | - |
| 1787855400 | 29.44° C | 56% | 1015.7 hPa | 0 mm | - | 673 W/m² | - |
* Rain latest hour (hover to see other rain measurements)
** Current wind speed in m/s (hover to see current wind gust speed)